Bolivia, Illinois
Current Conditions -  °F | °C
As of 6:17 AM on Friday 24 Oct 2014 (Local Time) from KSPI Reporting Station
Moderate Fog Moderate Fog  
Wind Chill: 53°   Ceiling: 200
Heat Index: 53°   Visibility: 0.5mi
Dew Point: 52°   Wind: 6mph
Humidity: 96%   Direction: 270°W
Pressure: 30.08"   Gusts: NA
Location:  39.766°N, 89.4108°W
Report Text: KSPI 241117Z 27005KT 1/2SM R04/3500VP6000FT FG VV002 12/11 A3008 RMK AO2 T01170111
Loading
Personal Weather Stations






























Interactive Weather Map
Tropical Storm Tracking
New forecast layout! Learn more

10-Day Weather Forecast

Advertisements
Track Severe Weather on mobile